sensor_id;sensor_type;location;lat;lon;timestamp;P1;durP1;ratioP1;P2;durP2;ratioP2
80281;SDS011;69586;51.890;-8.458;2023-05-02T10:22:36;6.10;;;1.85;;
80281;SDS011;69586;51.890;-8.458;2023-05-02T10:25:03;5.53;;;2.00;;
80281;SDS011;69586;51.890;-8.458;2023-05-02T10:27:29;2.72;;;1.45;;
80281;SDS011;69586;51.890;-8.458;2023-05-02T10:29:57;6.25;;;1.83;;
80281;SDS011;69586;51.890;-8.458;2023-05-02T10:32:23;6.00;;;1.90;;
80281;SDS011;69586;51.890;-8.458;2023-05-02T10:34:53;3.70;;;1.92;;
80281;SDS011;69586;51.890;-8.458;2023-05-02T10:37:22;5.45;;;1.80;;
80281;SDS011;69586;51.890;-8.458;2023-05-02T10:39:53;4.70;;;1.83;;
80281;SDS011;69586;51.890;-8.458;2023-05-02T10:42:19;5.80;;;1.95;;
80281;SDS011;69586;51.890;-8.458;2023-05-02T10:44:45;8.27;;;1.60;;
80281;SDS011;69586;51.890;-8.458;2023-05-02T10:49:57;5.85;;;1.95;;
80281;SDS011;69586;51.890;-8.458;2023-05-02T10:52:31;6.88;;;1.98;;
80281;SDS011;69586;51.890;-8.458;2023-05-02T10:58:26;5.20;;;1.98;;
80281;SDS011;69586;51.890;-8.458;2023-05-02T11:00:33;6.32;;;2.15;;
80281;SDS011;69586;51.890;-8.458;2023-05-02T11:02:59;5.00;;;1.98;;
80281;SDS011;69586;51.890;-8.458;2023-05-02T11:05:26;6.07;;;2.25;;
80281;SDS011;69586;51.890;-8.458;2023-05-02T11:10:40;8.27;;;2.03;;
80281;SDS011;69586;51.890;-8.458;2023-05-02T11:13:05;3.55;;;1.67;;
80281;SDS011;69586;51.890;-8.458;2023-05-02T11:20:27;5.63;;;2.20;;
80281;SDS011;69586;51.890;-8.458;2023-05-02T11:22:54;4.25;;;2.03;;
80281;SDS011;69586;51.890;-8.458;2023-05-02T11:25:30;3.90;;;1.77;;
80281;SDS011;69586;51.890;-8.458;2023-05-02T11:27:57;7.10;;;2.03;;
80281;SDS011;69586;51.890;-8.458;2023-05-02T11:30:36;4.90;;;1.75;;
80281;SDS011;69586;51.890;-8.458;2023-05-02T11:35:28;7.18;;;2.53;;
80281;SDS011;69586;51.890;-8.458;2023-05-02T11:38:07;6.70;;;2.10;;
80281;SDS011;69586;51.890;-8.458;2023-05-02T11:40:37;6.95;;;2.00;;
80281;SDS011;69586;51.890;-8.458;2023-05-02T11:43:13;4.70;;;1.90;;
80281;SDS011;69586;51.890;-8.458;2023-05-02T11:45:42;4.20;;;1.98;;
80281;SDS011;69586;51.890;-8.458;2023-05-02T11:48:08;4.70;;;1.75;;
80281;SDS011;69586;51.890;-8.458;2023-05-02T11:50:48;6.57;;;1.88;;
80281;SDS011;69586;51.890;-8.458;2023-05-02T11:53:15;3.25;;;1.98;;
80281;SDS011;69586;51.890;-8.458;2023-05-02T11:55:43;5.07;;;1.45;;
80281;SDS011;69586;51.890;-8.458;2023-05-02T11:58:16;6.32;;;2.00;;
80281;SDS011;69586;51.890;-8.458;2023-05-02T12:00:44;6.35;;;2.10;;
80281;SDS011;69586;51.890;-8.458;2023-05-02T12:05:46;8.50;;;1.80;;
80281;SDS011;69586;51.890;-8.458;2023-05-02T12:08:25;4.07;;;1.70;;
80281;SDS011;69586;51.890;-8.458;2023-05-02T12:10:55;5.22;;;2.05;;
80281;SDS011;69586;51.890;-8.458;2023-05-02T12:13:22;3.05;;;1.92;;
80281;SDS011;69586;51.890;-8.458;2023-05-02T12:15:50;4.95;;;1.65;;
80281;SDS011;69586;51.890;-8.458;2023-05-02T12:18:17;5.13;;;2.00;;
80281;SDS011;69586;51.890;-8.458;2023-05-02T12:20:43;3.92;;;1.80;;
80281;SDS011;69586;51.890;-8.458;2023-05-02T12:23:09;3.17;;;2.00;;
80281;SDS011;69586;51.890;-8.458;2023-05-02T12:25:39;6.30;;;2.00;;
80281;SDS011;69586;51.890;-8.458;2023-05-02T12:28:05;4.03;;;1.80;;
80281;SDS011;69586;51.890;-8.458;2023-05-02T12:30:31;7.80;;;2.28;;
80281;SDS011;69586;51.890;-8.458;2023-05-02T12:33:01;4.57;;;2.30;;
80281;SDS011;69586;51.890;-8.458;2023-05-02T12:35:27;5.43;;;2.47;;
80281;SDS011;69586;51.890;-8.458;2023-05-02T12:37:54;6.13;;;2.33;;
80281;SDS011;69586;51.890;-8.458;2023-05-02T12:40:31;4.85;;;2.00;;
80281;SDS011;69586;51.890;-8.458;2023-05-02T12:42:58;6.05;;;2.20;;
80281;SDS011;69586;51.890;-8.458;2023-05-02T12:45:27;6.68;;;2.05;;
80281;SDS011;69586;51.890;-8.458;2023-05-02T12:47:57;6.93;;;2.53;;
80281;SDS011;69586;51.890;-8.458;2023-05-02T12:50:42;5.50;;;2.05;;
80281;SDS011;69586;51.890;-8.458;2023-05-02T12:53:08;8.45;;;2.53;;
80281;SDS011;69586;51.890;-8.458;2023-05-02T12:55:34;6.28;;;2.38;;
80281;SDS011;69586;51.890;-8.458;2023-05-02T12:58:07;7.47;;;2.28;;
80281;SDS011;69586;51.890;-8.458;2023-05-02T13:00:35;8.20;;;1.83;;
80281;SDS011;69586;51.890;-8.458;2023-05-02T13:03:03;3.63;;;2.10;;
80281;SDS011;69586;51.890;-8.458;2023-05-02T13:05:30;8.68;;;2.53;;
80281;SDS011;69586;51.890;-8.458;2023-05-02T13:07:56;7.60;;;2.05;;
80281;SDS011;69586;51.890;-8.458;2023-05-02T13:10:23;7.65;;;2.50;;
80281;SDS011;69586;51.890;-8.458;2023-05-02T13:12:50;4.43;;;2.20;;
80281;SDS011;69586;51.890;-8.458;2023-05-02T13:15:16;3.75;;;2.00;;
80281;SDS011;69586;51.890;-8.458;2023-05-02T13:17:43;5.38;;;2.25;;
80281;SDS011;69586;51.890;-8.458;2023-05-02T13:20:09;4.97;;;2.33;;
80281;SDS011;69586;51.890;-8.458;2023-05-02T13:22:37;7.38;;;2.63;;
80281;SDS011;69586;51.890;-8.458;2023-05-02T13:25:06;10.52;;;2.65;;
80281;SDS011;69586;51.890;-8.458;2023-05-02T13:27:32;7.57;;;2.40;;
80281;SDS011;69586;51.890;-8.458;2023-05-02T13:30:01;7.47;;;2.45;;
80281;SDS011;69586;51.890;-8.458;2023-05-02T13:32:27;5.75;;;2.05;;
80281;SDS011;69586;51.890;-8.458;2023-05-02T13:34:53;5.75;;;2.63;;
80281;SDS011;69586;51.890;-8.458;2023-05-02T13:37:19;3.50;;;2.03;;
80281;SDS011;69586;51.890;-8.458;2023-05-02T13:39:45;7.45;;;2.13;;
80281;SDS011;69586;51.890;-8.458;2023-05-02T13:42:11;3.88;;;1.85;;
80281;SDS011;69586;51.890;-8.458;2023-05-02T13:44:36;6.50;;;1.90;;
80281;SDS011;69586;51.890;-8.458;2023-05-02T13:47:02;5.05;;;1.85;;
80281;SDS011;69586;51.890;-8.458;2023-05-02T13:49:28;3.97;;;1.80;;
80281;SDS011;69586;51.890;-8.458;2023-05-02T13:51:54;4.78;;;1.90;;
80281;SDS011;69586;51.890;-8.458;2023-05-02T13:54:20;4.68;;;1.65;;
80281;SDS011;69586;51.890;-8.458;2023-05-02T13:56:46;7.65;;;1.90;;
80281;SDS011;69586;51.890;-8.458;2023-05-02T13:59:11;5.80;;;2.15;;
80281;SDS011;69586;51.890;-8.458;2023-05-02T14:01:37;4.15;;;1.73;;
80281;SDS011;69586;51.890;-8.458;2023-05-02T14:04:04;5.00;;;2.13;;
80281;SDS011;69586;51.890;-8.458;2023-05-02T14:06:32;5.78;;;2.10;;
80281;SDS011;69586;51.890;-8.458;2023-05-02T14:08:59;4.75;;;2.03;;
80281;SDS011;69586;51.890;-8.458;2023-05-02T14:11:25;3.80;;;2.10;;
80281;SDS011;69586;51.890;-8.458;2023-05-02T14:13:51;7.15;;;1.88;;
80281;SDS011;69586;51.890;-8.458;2023-05-02T14:16:17;4.65;;;1.83;;
80281;SDS011;69586;51.890;-8.458;2023-05-02T14:18:43;5.57;;;2.03;;
80281;SDS011;69586;51.890;-8.458;2023-05-02T14:21:14;7.05;;;2.25;;
80281;SDS011;69586;51.890;-8.458;2023-05-02T14:23:40;3.63;;;1.85;;
80281;SDS011;69586;51.890;-8.458;2023-05-02T14:26:06;6.47;;;2.17;;
80281;SDS011;69586;51.890;-8.458;2023-05-02T14:28:32;6.20;;;2.15;;
80281;SDS011;69586;51.890;-8.458;2023-05-02T14:30:58;4.32;;;1.80;;
80281;SDS011;69586;51.890;-8.458;2023-05-02T14:33:23;4.68;;;1.60;;
80281;SDS011;69586;51.890;-8.458;2023-05-02T14:35:49;3.80;;;1.83;;
80281;SDS011;69586;51.890;-8.458;2023-05-02T14:38:15;5.47;;;2.00;;
80281;SDS011;69586;51.890;-8.458;2023-05-02T14:40:41;3.80;;;1.63;;
80281;SDS011;69586;51.890;-8.458;2023-05-02T14:43:06;2.38;;;1.58;;
80281;SDS011;69586;51.890;-8.458;2023-05-02T14:45:32;5.18;;;1.33;;
80281;SDS011;69586;51.890;-8.458;2023-05-02T14:47:58;6.20;;;1.58;;
80281;SDS011;69586;51.890;-8.458;2023-05-02T14:50:24;3.25;;;1.60;;
80281;SDS011;69586;51.890;-8.458;2023-05-02T14:52:50;7.75;;;1.40;;
80281;SDS011;69586;51.890;-8.458;2023-05-02T14:55:16;3.70;;;1.20;;
80281;SDS011;69586;51.890;-8.458;2023-05-02T14:57:42;2.25;;;1.40;;
80281;SDS011;69586;51.890;-8.458;2023-05-02T15:00:08;1.92;;;1.40;;
80281;SDS011;69586;51.890;-8.458;2023-05-02T15:02:34;4.30;;;1.60;;
80281;SDS011;69586;51.890;-8.458;2023-05-02T15:05:00;1.88;;;1.38;;
80281;SDS011;69586;51.890;-8.458;2023-05-02T15:07:27;2.97;;;1.30;;
80281;SDS011;69586;51.890;-8.458;2023-05-02T15:09:53;3.95;;;1.80;;
80281;SDS011;69586;51.890;-8.458;2023-05-02T15:12:18;4.35;;;1.35;;
80281;SDS011;69586;51.890;-8.458;2023-05-02T15:14:44;5.30;;;1.30;;
80281;SDS011;69586;51.890;-8.458;2023-05-02T15:17:10;6.57;;;1.50;;
80281;SDS011;69586;51.890;-8.458;2023-05-02T15:19:35;9.73;;;1.63;;
80281;SDS011;69586;51.890;-8.458;2023-05-02T15:22:01;3.60;;;1.25;;
80281;SDS011;69586;51.890;-8.458;2023-05-02T15:24:27;2.95;;;1.38;;
80281;SDS011;69586;51.890;-8.458;2023-05-02T15:26:53;3.63;;;1.52;;
80281;SDS011;69586;51.890;-8.458;2023-05-02T15:29:18;4.53;;;1.60;;
80281;SDS011;69586;51.890;-8.458;2023-05-02T15:31:44;3.63;;;1.33;;
80281;SDS011;69586;51.890;-8.458;2023-05-02T15:34:10;3.30;;;1.70;;
80281;SDS011;69586;51.890;-8.458;2023-05-02T15:36:36;2.33;;;1.38;;
80281;SDS011;69586;51.890;-8.458;2023-05-02T15:39:02;2.30;;;1.40;;
80281;SDS011;69586;51.890;-8.458;2023-05-02T15:41:28;4.30;;;1.30;;
80281;SDS011;69586;51.890;-8.458;2023-05-02T15:43:55;3.90;;;1.20;;
80281;SDS011;69586;51.890;-8.458;2023-05-02T15:46:21;5.53;;;1.55;;
80281;SDS011;69586;51.890;-8.458;2023-05-02T15:48:47;6.07;;;1.70;;
80281;SDS011;69586;51.890;-8.458;2023-05-02T15:51:13;2.15;;;1.15;;
80281;SDS011;69586;51.890;-8.458;2023-05-02T15:53:39;2.70;;;1.40;;
80281;SDS011;69586;51.890;-8.458;2023-05-02T15:56:08;3.85;;;1.52;;
80281;SDS011;69586;51.890;-8.458;2023-05-02T15:58:37;1.52;;;1.30;;
80281;SDS011;69586;51.890;-8.458;2023-05-02T16:01:04;3.15;;;1.40;;
80281;SDS011;69586;51.890;-8.458;2023-05-02T16:03:30;2.63;;;1.55;;
80281;SDS011;69586;51.890;-8.458;2023-05-02T16:05:56;1.90;;;1.30;;
80281;SDS011;69586;51.890;-8.458;2023-05-02T16:08:25;2.33;;;1.10;;
80281;SDS011;69586;51.890;-8.458;2023-05-02T16:10:51;2.72;;;1.27;;
80281;SDS011;69586;51.890;-8.458;2023-05-02T16:13:17;3.22;;;1.00;;
80281;SDS011;69586;51.890;-8.458;2023-05-02T16:15:44;1.95;;;1.30;;
80281;SDS011;69586;51.890;-8.458;2023-05-02T16:18:12;4.60;;;1.20;;
80281;SDS011;69586;51.890;-8.458;2023-05-02T16:20:38;5.20;;;1.50;;
80281;SDS011;69586;51.890;-8.458;2023-05-02T16:23:06;4.32;;;1.40;;
80281;SDS011;69586;51.890;-8.458;2023-05-02T16:25:32;1.60;;;1.40;;
80281;SDS011;69586;51.890;-8.458;2023-05-02T16:27:58;1.63;;;1.52;;
80281;SDS011;69586;51.890;-8.458;2023-05-02T16:30:24;1.88;;;1.30;;
80281;SDS011;69586;51.890;-8.458;2023-05-02T16:32:51;2.05;;;1.10;;
80281;SDS011;69586;51.890;-8.458;2023-05-02T16:35:16;3.60;;;1.50;;
80281;SDS011;69586;51.890;-8.458;2023-05-02T16:37:44;2.50;;;1.20;;
80281;SDS011;69586;51.890;-8.458;2023-05-02T16:40:10;3.92;;;1.05;;
80281;SDS011;69586;51.890;-8.458;2023-05-02T16:42:36;2.20;;;1.30;;
80281;SDS011;69586;51.890;-8.458;2023-05-02T16:45:03;3.38;;;1.67;;
80281;SDS011;69586;51.890;-8.458;2023-05-02T16:47:30;1.52;;;1.42;;
80281;SDS011;69586;51.890;-8.458;2023-05-02T16:49:57;2.45;;;1.17;;
80281;SDS011;69586;51.890;-8.458;2023-05-02T16:52:24;2.83;;;1.25;;
80281;SDS011;69586;51.890;-8.458;2023-05-02T16:54:50;3.60;;;1.52;;
80281;SDS011;69586;51.890;-8.458;2023-05-02T16:57:16;1.70;;;1.35;;
80281;SDS011;69586;51.890;-8.458;2023-05-02T16:59:52;2.83;;;1.92;;
80281;SDS011;69586;51.890;-8.458;2023-05-02T17:02:18;1.45;;;1.30;;
80281;SDS011;69586;51.890;-8.458;2023-05-02T17:04:45;2.00;;;1.30;;
80281;SDS011;69586;51.890;-8.458;2023-05-02T17:07:12;2.17;;;1.92;;
80281;SDS011;69586;51.890;-8.458;2023-05-02T17:09:38;4.72;;;1.60;;
80281;SDS011;69586;51.890;-8.458;2023-05-02T17:12:05;3.92;;;1.35;;
80281;SDS011;69586;51.890;-8.458;2023-05-02T17:14:31;4.05;;;1.60;;
80281;SDS011;69586;51.890;-8.458;2023-05-02T17:16:58;1.80;;;1.40;;
80281;SDS011;69586;51.890;-8.458;2023-05-02T17:19:26;1.83;;;1.45;;
80281;SDS011;69586;51.890;-8.458;2023-05-02T17:21:52;1.77;;;1.60;;
80281;SDS011;69586;51.890;-8.458;2023-05-02T17:24:20;1.77;;;1.63;;
80281;SDS011;69586;51.890;-8.458;2023-05-02T17:26:46;2.95;;;1.40;;
80281;SDS011;69586;51.890;-8.458;2023-05-02T17:29:12;1.35;;;1.20;;
80281;SDS011;69586;51.890;-8.458;2023-05-02T17:31:38;1.40;;;1.30;;
80281;SDS011;69586;51.890;-8.458;2023-05-02T17:34:03;2.78;;;1.40;;
80281;SDS011;69586;51.890;-8.458;2023-05-02T17:36:29;3.47;;;1.80;;
80281;SDS011;69586;51.890;-8.458;2023-05-02T17:38:56;2.03;;;1.48;;
80281;SDS011;69586;51.890;-8.458;2023-05-02T17:41:22;3.00;;;1.20;;
80281;SDS011;69586;51.890;-8.458;2023-05-02T17:43:48;1.98;;;1.40;;
80281;SDS011;69586;51.890;-8.458;2023-05-02T17:46:14;3.40;;;1.48;;
80281;SDS011;69586;51.890;-8.458;2023-05-02T17:48:43;3.78;;;1.70;;
80281;SDS011;69586;51.890;-8.458;2023-05-02T17:51:09;3.20;;;1.42;;
80281;SDS011;69586;51.890;-8.458;2023-05-02T17:53:36;2.60;;;1.38;;
80281;SDS011;69586;51.890;-8.458;2023-05-02T17:56:03;5.88;;;1.35;;
80281;SDS011;69586;51.890;-8.458;2023-05-02T17:58:29;3.13;;;1.25;;
80281;SDS011;69586;51.890;-8.458;2023-05-02T18:00:56;5.57;;;1.63;;
80281;SDS011;69586;51.890;-8.458;2023-05-02T18:03:22;5.43;;;1.83;;
80281;SDS011;69586;51.890;-8.458;2023-05-02T18:05:48;4.28;;;1.80;;
80281;SDS011;69586;51.890;-8.458;2023-05-02T18:08:14;3.78;;;1.60;;
80281;SDS011;69586;51.890;-8.458;2023-05-02T18:10:40;3.47;;;2.05;;
80281;SDS011;69586;51.890;-8.458;2023-05-02T18:13:06;5.03;;;2.28;;
80281;SDS011;69586;51.890;-8.458;2023-05-02T18:15:32;2.95;;;1.33;;
80281;SDS011;69586;51.890;-8.458;2023-05-02T18:17:58;6.50;;;1.52;;
80281;SDS011;69586;51.890;-8.458;2023-05-02T18:20:24;2.42;;;1.38;;
80281;SDS011;69586;51.890;-8.458;2023-05-02T18:22:50;3.90;;;1.55;;
80281;SDS011;69586;51.890;-8.458;2023-05-02T18:25:16;2.60;;;1.52;;
80281;SDS011;69586;51.890;-8.458;2023-05-02T18:27:42;2.45;;;1.55;;
80281;SDS011;69586;51.890;-8.458;2023-05-02T18:30:08;2.88;;;1.70;;
80281;SDS011;69586;51.890;-8.458;2023-05-02T18:32:35;2.10;;;1.38;;
80281;SDS011;69586;51.890;-8.458;2023-05-02T18:35:02;2.28;;;1.55;;
80281;SDS011;69586;51.890;-8.458;2023-05-02T18:37:33;3.92;;;1.58;;
80281;SDS011;69586;51.890;-8.458;2023-05-02T18:39:59;2.75;;;1.70;;
80281;SDS011;69586;51.890;-8.458;2023-05-02T18:42:28;2.30;;;1.30;;
80281;SDS011;69586;51.890;-8.458;2023-05-02T18:44:54;4.10;;;1.77;;
80281;SDS011;69586;51.890;-8.458;2023-05-02T18:47:19;2.50;;;1.70;;
80281;SDS011;69586;51.890;-8.458;2023-05-02T18:49:45;4.05;;;1.40;;
80281;SDS011;69586;51.890;-8.458;2023-05-02T18:52:11;3.55;;;1.67;;
80281;SDS011;69586;51.890;-8.458;2023-05-02T18:54:37;7.95;;;1.60;;
80281;SDS011;69586;51.890;-8.458;2023-05-02T18:57:03;3.00;;;1.50;;
80281;SDS011;69586;51.890;-8.458;2023-05-02T18:59:29;3.22;;;1.40;;
80281;SDS011;69586;51.890;-8.458;2023-05-02T19:01:55;1.85;;;1.58;;
80281;SDS011;69586;51.890;-8.458;2023-05-02T19:04:22;4.95;;;1.60;;
80281;SDS011;69586;51.890;-8.458;2023-05-02T19:06:48;2.35;;;1.50;;
80281;SDS011;69586;51.890;-8.458;2023-05-02T19:09:13;2.88;;;1.65;;
80281;SDS011;69586;51.890;-8.458;2023-05-02T19:11:40;5.57;;;1.80;;
